Time;durP1;ratioP1;P1;durP2;ratioP2;P2;SDS_P1;SDS_P2;PMS_P1;PMS_P2;Temp;Humidity;BMP_temperature;BMP_pressure;BME280_temperature;BME280_humidity;BME280_pressure;Samples;Min_cycle;Max_cycle;Signal;HPM_P1;HPM_P2
2021/07/08 00:02:07;;;;;;;9.80;5.53;;;;;;;;;;3590316;39;20760;-75
2021/07/08 00:04:35;;;;;;;6.27;5.67;;;;;;;;;;3599675;39;20415;-75
2021/07/08 00:07:01;;;;;;;6.03;5.00;;;;;;;;;;3589866;39;20410;-75
2021/07/08 00:09:27;;;;;;;6.07;5.47;;;;;;;;;;3587785;39;20823;-75
2021/07/08 00:11:53;;;;;;;6.87;5.30;;;;;;;;;;3578979;39;20500;-75
2021/07/08 00:14:19;;;;;;;7.67;5.97;;;;;;;;;;3600798;39;20438;-75
2021/07/08 00:16:45;;;;;;;6.40;5.47;;;;;;;;;;3602861;39;21078;-75
2021/07/08 00:19:11;;;;;;;5.73;5.17;;;;;;;;;;3602322;39;20478;-75
2021/07/08 00:21:39;;;;;;;9.47;6.80;;;;;;;;;;3599138;39;21185;-75
2021/07/08 00:24:06;;;;;;;5.83;5.27;;;;;;;;;;3598952;39;20479;-75
2021/07/08 00:26:32;;;;;;;7.53;5.63;;;;;;;;;;3584989;39;20454;-75
2021/07/08 00:28:58;;;;;;;10.97;6.53;;;;;;;;;;3597003;39;20466;-75
2021/07/08 00:31:24;;;;;;;6.10;4.97;;;;;;;;;;3584255;39;20666;-75
2021/07/08 00:33:50;;;;;;;9.00;6.00;;;;;;;;;;3589045;39;20414;-75
2021/07/08 00:36:16;;;;;;;6.17;5.57;;;;;;;;;;3595219;39;20482;-75
2021/07/08 00:38:42;;;;;;;11.93;6.50;;;;;;;;;;3586388;39;20500;-75
2021/07/08 00:41:08;;;;;;;8.03;5.97;;;;;;;;;;3594678;39;20466;-75
2021/07/08 00:43:35;;;;;;;8.30;6.17;;;;;;;;;;3587409;39;20813;-75
2021/07/08 00:46:01;;;;;;;5.80;5.30;;;;;;;;;;3596763;39;20408;-75
2021/07/08 00:48:27;;;;;;;7.53;5.90;;;;;;;;;;3589415;39;20419;-75
2021/07/08 00:50:53;;;;;;;7.80;5.50;;;;;;;;;;3598121;39;20407;-75
2021/07/08 00:53:21;;;;;;;7.13;5.13;;;;;;;;;;3587805;39;20435;-75
2021/07/08 00:55:53;;;;;;;9.10;5.33;;;;;;;;;;3578246;39;20378;-75
2021/07/08 00:58:19;;;;;;;5.70;5.10;;;;;;;;;;3595905;39;20815;-75
2021/07/08 01:00:45;;;;;;;5.70;5.10;;;;;;;;;;3595668;39;20486;-75
2021/07/08 01:03:13;;;;;;;5.83;5.33;;;;;;;;;;3599711;39;20440;-75
2021/07/08 01:08:08;;;;;;;6.10;5.57;;;;;;;;;;3591358;39;20435;-79
2021/07/08 01:10:34;;;;;;;12.07;5.50;;;;;;;;;;3594281;39;20828;-79
2021/07/08 01:13:00;;;;;;;11.80;5.70;;;;;;;;;;3583937;39;20841;-79
2021/07/08 01:15:27;;;;;;;7.70;5.57;;;;;;;;;;3583965;39;20424;-79
2021/07/08 01:17:53;;;;;;;8.30;5.37;;;;;;;;;;3581470;39;20427;-79
2021/07/08 01:20:20;;;;;;;5.57;5.07;;;;;;;;;;3592088;39;20395;-79
2021/07/08 01:22:49;;;;;;;7.27;5.63;;;;;;;;;;3582509;39;20482;-79
2021/07/08 01:25:17;;;;;;;6.57;5.43;;;;;;;;;;3583528;39;20442;-79
2021/07/08 01:27:43;;;;;;;6.00;5.50;;;;;;;;;;3579524;39;20420;-80
2021/07/08 01:30:11;;;;;;;7.63;6.37;;;;;;;;;;3592305;39;20396;-80
2021/07/08 01:32:37;;;;;;;6.37;5.73;;;;;;;;;;3583296;39;20677;-79
2021/07/08 01:35:04;;;;;;;10.33;7.47;;;;;;;;;;3590597;39;20518;-78
2021/07/08 01:37:30;;;;;;;6.30;5.67;;;;;;;;;;3572314;39;20757;-79
2021/07/08 01:39:59;;;;;;;7.00;5.73;;;;;;;;;;3581012;39;20418;-79
2021/07/08 01:42:26;;;;;;;6.10;5.53;;;;;;;;;;3573340;39;20443;-79
2021/07/08 01:44:52;;;;;;;7.10;6.43;;;;;;;;;;3595459;39;20419;-79
2021/07/08 01:47:18;;;;;;;9.93;5.63;;;;;;;;;;3590944;39;20761;-79
2021/07/08 01:49:44;;;;;;;10.50;5.80;;;;;;;;;;3582457;39;20439;-79
2021/07/08 01:52:11;;;;;;;6.80;5.87;;;;;;;;;;3567138;39;20485;-79
2021/07/08 01:54:37;;;;;;;10.00;5.60;;;;;;;;;;3583058;39;20389;-78
2021/07/08 01:57:04;;;;;;;8.50;6.00;;;;;;;;;;3585105;39;20415;-78
2021/07/08 01:59:30;;;;;;;7.07;5.80;;;;;;;;;;3592467;39;21260;-79
2021/07/08 02:01:56;;;;;;;7.30;6.20;;;;;;;;;;3584117;39;21015;-79
2021/07/08 02:07:35;;;;;;;5.57;5.07;;;;;;;;;;3578097;39;20436;-79
2021/07/08 02:10:02;;;;;;;7.00;5.97;;;;;;;;;;3569495;40;20432;-79
2021/07/08 02:12:28;;;;;;;8.27;6.00;;;;;;;;;;3588712;39;20401;-79
2021/07/08 02:14:54;;;;;;;6.57;5.87;;;;;;;;;;3580481;40;20396;-79
2021/07/08 02:17:20;;;;;;;9.80;6.27;;;;;;;;;;3566506;40;20405;-79
2021/07/08 02:19:46;;;;;;;6.70;6.10;;;;;;;;;;3569440;40;20431;-79
2021/07/08 02:22:12;;;;;;;7.67;6.40;;;;;;;;;;3590661;40;21034;-79
2021/07/08 02:24:38;;;;;;;9.07;8.00;;;;;;;;;;3590994;39;20425;-79
2021/07/08 02:27:05;;;;;;;8.40;6.77;;;;;;;;;;3592147;40;20737;-79
2021/07/08 02:29:31;;;;;;;12.20;7.50;;;;;;;;;;3591678;40;20433;-79
2021/07/08 02:31:57;;;;;;;9.87;7.73;;;;;;;;;;3601839;39;20518;-79
2021/07/08 02:34:26;;;;;;;11.90;7.70;;;;;;;;;;3591948;39;20444;-79
2021/07/08 02:36:52;;;;;;;10.03;6.67;;;;;;;;;;3577117;39;20422;-79
2021/07/08 02:39:18;;;;;;;10.87;8.20;;;;;;;;;;3577727;39;20414;-79
2021/07/08 02:41:44;;;;;;;10.87;7.20;;;;;;;;;;3601665;39;20388;-78
2021/07/08 02:44:10;;;;;;;7.20;5.90;;;;;;;;;;3585261;39;20407;-78
2021/07/08 02:46:36;;;;;;;10.90;6.90;;;;;;;;;;3593265;39;20499;-79
2021/07/08 02:49:02;;;;;;;7.20;5.93;;;;;;;;;;3583457;39;20545;-79
2021/07/08 02:51:28;;;;;;;10.73;6.33;;;;;;;;;;3600720;39;20448;-79
2021/07/08 02:53:56;;;;;;;7.40;5.70;;;;;;;;;;3593475;39;20483;-80
2021/07/08 02:56:22;;;;;;;9.00;6.10;;;;;;;;;;3592298;39;20452;-79
2021/07/08 02:58:48;;;;;;;9.33;5.97;;;;;;;;;;3604178;39;20419;-79
2021/07/08 03:01:14;;;;;;;9.53;6.10;;;;;;;;;;3592412;39;20392;-79
2021/07/08 03:03:40;;;;;;;11.67;7.23;;;;;;;;;;3584306;39;20447;-80
2021/07/08 03:06:08;;;;;;;7.60;6.40;;;;;;;;;;3585832;39;20405;-79
2021/07/08 03:08:34;;;;;;;11.80;6.53;;;;;;;;;;3591438;39;20390;-79
2021/07/08 03:11:01;;;;;;;6.80;6.20;;;;;;;;;;3600643;39;20496;-79
2021/07/08 03:13:27;;;;;;;7.23;6.10;;;;;;;;;;3601487;39;21265;-79
2021/07/08 03:15:53;;;;;;;6.93;6.23;;;;;;;;;;3591893;39;20435;-79
2021/07/08 03:18:21;;;;;;;11.27;7.03;;;;;;;;;;3592526;39;20413;-79
2021/07/08 03:20:48;;;;;;;6.43;5.83;;;;;;;;;;3592492;39;20438;-80
2021/07/08 03:23:16;;;;;;;23.73;7.37;;;;;;;;;;3575985;39;20788;-80
2021/07/08 03:25:42;;;;;;;8.03;7.03;;;;;;;;;;3584629;39;20410;-80
2021/07/08 03:28:09;;;;;;;10.80;8.87;;;;;;;;;;3592175;39;20730;-80
2021/07/08 03:30:35;;;;;;;10.37;6.90;;;;;;;;;;3591214;39;20411;-80
2021/07/08 03:33:02;;;;;;;9.83;7.13;;;;;;;;;;3591190;39;20562;-80
2021/07/08 03:35:29;;;;;;;7.03;6.30;;;;;;;;;;3601721;39;20412;-80
2021/07/08 03:37:55;;;;;;;11.53;6.37;;;;;;;;;;3590936;39;20420;-79
2021/07/08 03:40:24;;;;;;;9.07;7.10;;;;;;;;;;3585806;39;20423;-80
2021/07/08 03:42:50;;;;;;;8.43;6.90;;;;;;;;;;3599917;39;20407;-79
2021/07/08 03:45:17;;;;;;;6.50;5.90;;;;;;;;;;3598869;39;20367;-80
2021/07/08 03:47:44;;;;;;;9.43;7.23;;;;;;;;;;3599980;39;20419;-79
2021/07/08 03:50:13;;;;;;;7.93;7.03;;;;;;;;;;3581714;39;20470;-79
2021/07/08 03:52:42;;;;;;;9.90;7.03;;;;;;;;;;3584684;39;20367;-79
2021/07/08 03:55:13;;;;;;;13.67;8.57;;;;;;;;;;3598675;39;20378;-79
2021/07/08 03:57:55;;;;;;;7.90;7.00;;;;;;;;;;3590181;39;20411;-78
2021/07/08 04:00:23;;;;;;;9.37;7.10;;;;;;;;;;3575152;39;20435;-78
2021/07/08 04:02:49;;;;;;;19.67;6.93;;;;;;;;;;3575325;39;20411;-79
2021/07/08 04:05:15;;;;;;;13.60;7.67;;;;;;;;;;3589406;39;20487;-78
2021/07/08 04:07:41;;;;;;;8.23;7.13;;;;;;;;;;3582103;39;21268;-79
2021/07/08 04:10:07;;;;;;;8.93;6.67;;;;;;;;;;3574187;39;20422;-79
2021/07/08 04:12:33;;;;;;;9.13;7.47;;;;;;;;;;3593176;39;20429;-79
2021/07/08 04:14:59;;;;;;;12.47;8.30;;;;;;;;;;3591774;39;20396;-79
2021/07/08 04:17:25;;;;;;;14.83;8.20;;;;;;;;;;3582488;39;20419;-79
2021/07/08 04:19:53;;;;;;;10.00;6.80;;;;;;;;;;3581738;39;20443;-79
2021/07/08 04:22:19;;;;;;;17.53;7.27;;;;;;;;;;3574331;39;20412;-81
2021/07/08 04:24:45;;;;;;;8.30;7.17;;;;;;;;;;3583012;39;20449;-78
2021/07/08 04:27:11;;;;;;;9.63;8.00;;;;;;;;;;3575989;39;20788;-78
2021/07/08 04:29:37;;;;;;;12.73;8.03;;;;;;;;;;3581728;39;20903;-79
2021/07/08 04:32:03;;;;;;;12.40;6.77;;;;;;;;;;3584202;39;20378;-79
2021/07/08 04:34:29;;;;;;;12.60;7.30;;;;;;;;;;3582367;39;20386;-79
2021/07/08 04:36:56;;;;;;;9.57;6.80;;;;;;;;;;3582730;39;20387;-78
2021/07/08 04:39:22;;;;;;;8.70;7.80;;;;;;;;;;3573475;39;20437;-78
2021/07/08 04:41:48;;;;;;;7.90;6.80;;;;;;;;;;3584483;39;20461;-78
2021/07/08 04:44:14;;;;;;;9.53;7.23;;;;;;;;;;3582831;39;20961;-79
2021/07/08 04:46:40;;;;;;;9.77;7.47;;;;;;;;;;3591204;39;20497;-79
2021/07/08 04:49:06;;;;;;;11.33;6.60;;;;;;;;;;3565080;39;20489;-79
2021/07/08 04:51:34;;;;;;;12.57;7.17;;;;;;;;;;3583215;39;20892;-79
2021/07/08 04:54:00;;;;;;;7.73;5.93;;;;;;;;;;3592188;39;20416;-79
2021/07/08 04:56:26;;;;;;;8.80;6.93;;;;;;;;;;3582933;39;20411;-80
2021/07/08 04:58:52;;;;;;;6.10;5.50;;;;;;;;;;3581761;39;20729;-80
2021/07/08 05:01:18;;;;;;;7.87;6.50;;;;;;;;;;3576436;39;20415;-80
2021/07/08 05:03:44;;;;;;;8.47;5.80;;;;;;;;;;3581549;39;20493;-79
2021/07/08 05:06:10;;;;;;;10.13;5.07;;;;;;;;;;3581894;39;20525;-78
2021/07/08 05:08:36;;;;;;;6.43;5.73;;;;;;;;;;3567030;39;20472;-79
2021/07/08 05:11:02;;;;;;;6.63;5.93;;;;;;;;;;3572656;39;20480;-78
2021/07/08 05:13:28;;;;;;;8.70;5.90;;;;;;;;;;3581208;39;20421;-79
2021/07/08 05:15:54;;;;;;;7.97;5.33;;;;;;;;;;3573409;40;20680;-79
2021/07/08 05:18:20;;;;;;;10.20;6.03;;;;;;;;;;3566911;40;20510;-79
2021/07/08 05:20:46;;;;;;;5.63;4.73;;;;;;;;;;3566781;39;20408;-79
2021/07/08 05:23:14;;;;;;;4.90;4.47;;;;;;;;;;3573101;40;21251;-80
2021/07/08 05:25:41;;;;;;;11.50;5.43;;;;;;;;;;3572563;40;20444;-82
2021/07/08 05:28:08;;;;;;;7.93;5.03;;;;;;;;;;3575793;40;21140;-80
2021/07/08 05:30:35;;;;;;;7.57;4.97;;;;;;;;;;3576306;40;20432;-82
2021/07/08 05:33:01;;;;;;;7.13;4.97;;;;;;;;;;3561377;40;20419;-80
2021/07/08 05:35:28;;;;;;;9.03;6.07;;;;;;;;;;3573572;40;20404;-79
2021/07/08 05:37:54;;;;;;;9.23;6.07;;;;;;;;;;3583463;40;20432;-79
2021/07/08 05:40:20;;;;;;;10.13;5.87;;;;;;;;;;3571990;40;20467;-79
2021/07/08 05:42:46;;;;;;;10.30;5.90;;;;;;;;;;3580881;40;20769;-79
2021/07/08 05:45:12;;;;;;;8.23;6.13;;;;;;;;;;3572614;40;20428;-79
2021/07/08 05:47:40;;;;;;;8.23;5.77;;;;;;;;;;3564521;40;20429;-79
2021/07/08 05:50:07;;;;;;;14.63;7.30;;;;;;;;;;3578620;39;20408;-79
2021/07/08 05:52:33;;;;;;;6.40;5.03;;;;;;;;;;3579719;39;21228;-79
2021/07/08 05:54:59;;;;;;;7.37;6.50;;;;;;;;;;3581755;39;20409;-78
2021/07/08 05:57:25;;;;;;;8.30;5.63;;;;;;;;;;3574414;40;20494;-79
2021/07/08 05:59:51;;;;;;;9.40;6.20;;;;;;;;;;3573323;40;20409;-80
2021/07/08 06:02:17;;;;;;;10.40;6.27;;;;;;;;;;3574916;40;20403;-80
2021/07/08 06:04:43;;;;;;;17.70;6.30;;;;;;;;;;3575271;39;20467;-79
2021/07/08 06:07:10;;;;;;;10.20;6.40;;;;;;;;;;3570634;40;20914;-80
2021/07/08 06:09:36;;;;;;;9.60;5.70;;;;;;;;;;3569029;39;20423;-80
2021/07/08 06:12:02;;;;;;;5.73;5.23;;;;;;;;;;3575530;40;20444;-79
2021/07/08 06:14:28;;;;;;;7.87;5.73;;;;;;;;;;3576571;40;20466;-79
2021/07/08 06:16:54;;;;;;;10.30;6.17;;;;;;;;;;3591392;39;20411;-79
2021/07/08 06:19:20;;;;;;;7.37;5.70;;;;;;;;;;3581520;40;20432;-78
2021/07/08 06:21:48;;;;;;;9.63;6.47;;;;;;;;;;3572729;40;21282;-79
2021/07/08 06:24:14;;;;;;;7.57;5.90;;;;;;;;;;3576398;40;20409;-78
2021/07/08 06:29:53;;;;;;;6.67;5.97;;;;;;;;;;3584487;39;20404;-79
2021/07/08 06:32:19;;;;;;;8.10;7.07;;;;;;;;;;3590255;39;20489;-79
2021/07/08 06:34:46;;;;;;;7.97;5.70;;;;;;;;;;3576851;39;21330;-79
2021/07/08 06:37:12;;;;;;;11.50;6.30;;;;;;;;;;3577583;39;20816;-79
2021/07/08 06:39:38;;;;;;;16.53;6.50;;;;;;;;;;3587952;39;20420;-79
2021/07/08 06:42:04;;;;;;;15.83;6.20;;;;;;;;;;3570530;40;20432;-79
2021/07/08 06:44:30;;;;;;;6.60;5.50;;;;;;;;;;3578856;39;20408;-79
2021/07/08 06:46:57;;;;;;;8.03;5.43;;;;;;;;;;3570465;40;20424;-79
2021/07/08 06:49:23;;;;;;;6.50;5.67;;;;;;;;;;3570659;40;20500;-79
2021/07/08 06:51:49;;;;;;;9.17;6.23;;;;;;;;;;3563638;40;20408;-78
2021/07/08 06:54:15;;;;;;;5.63;5.13;;;;;;;;;;3570564;40;20450;-79
2021/07/08 06:56:42;;;;;;;8.13;6.30;;;;;;;;;;3578257;39;20447;-79
2021/07/08 06:59:08;;;;;;;6.73;6.00;;;;;;;;;;3563806;40;22496;-79
2021/07/08 07:01:35;;;;;;;12.37;5.83;;;;;;;;;;3587041;39;20416;-79
2021/07/08 07:04:02;;;;;;;7.40;5.23;;;;;;;;;;3581712;39;20478;-80
2021/07/08 07:06:28;;;;;;;9.50;5.20;;;;;;;;;;3589627;39;20396;-80
2021/07/08 07:08:54;;;;;;;7.90;5.50;;;;;;;;;;3579858;39;20926;-79
2021/07/08 07:11:20;;;;;;;7.27;5.30;;;;;;;;;;3579687;39;20448;-80
2021/07/08 07:13:46;;;;;;;6.37;5.77;;;;;;;;;;3578009;39;20843;-78
2021/07/08 07:16:12;;;;;;;6.63;5.47;;;;;;;;;;3580404;40;20534;-79
2021/07/08 07:18:39;;;;;;;7.67;5.97;;;;;;;;;;3581052;40;21134;-79
2021/07/08 07:21:09;;;;;;;7.50;5.83;;;;;;;;;;3579411;39;20918;-79
2021/07/08 07:23:35;;;;;;;7.67;5.60;;;;;;;;;;3575089;39;20431;-79
2021/07/08 07:26:01;;;;;;;6.47;5.70;;;;;;;;;;3566286;40;20444;-80
2021/07/08 07:28:28;;;;;;;7.83;5.93;;;;;;;;;;3569897;40;21622;-79
2021/07/08 07:30:54;;;;;;;7.50;5.10;;;;;;;;;;3567793;40;20404;-79
2021/07/08 07:33:20;;;;;;;10.10;6.17;;;;;;;;;;3569466;40;20526;-79
2021/07/08 07:35:47;;;;;;;8.30;6.30;;;;;;;;;;3570806;40;20740;-79
2021/07/08 07:38:13;;;;;;;9.60;5.33;;;;;;;;;;3585410;39;20465;-79
2021/07/08 07:40:42;;;;;;;5.90;4.93;;;;;;;;;;3569303;40;20408;-79
2021/07/08 07:43:09;;;;;;;6.57;5.97;;;;;;;;;;3575276;39;20419;-79
2021/07/08 07:45:35;;;;;;;5.77;5.33;;;;;;;;;;3575851;39;20377;-79
2021/07/08 07:48:01;;;;;;;8.77;5.20;;;;;;;;;;3584538;39;20434;-79
2021/07/08 07:50:31;;;;;;;5.53;5.00;;;;;;;;;;3578738;39;20551;-79
2021/07/08 07:52:57;;;;;;;5.67;5.10;;;;;;;;;;3577369;39;20550;-80
2021/07/08 07:55:27;;;;;;;5.53;4.93;;;;;;;;;;3567236;39;20452;-79
2021/07/08 07:57:57;;;;;;;5.33;4.90;;;;;;;;;;3567296;39;20712;-79
2021/07/08 08:00:24;;;;;;;8.03;6.27;;;;;;;;;;3562904;40;20421;-79
2021/07/08 08:02:50;;;;;;;8.63;5.00;;;;;;;;;;3573586;39;20928;-79
2021/07/08 08:10:28;;;;;;;6.37;5.87;;;;;;;;;;3575093;39;20418;-78
2021/07/08 08:12:55;;;;;;;5.50;5.10;;;;;;;;;;3574260;39;20423;-79
2021/07/08 08:15:21;;;;;;;6.57;5.43;;;;;;;;;;3569224;39;20823;-79
2021/07/08 08:17:47;;;;;;;5.60;4.50;;;;;;;;;;3585404;39;20835;-79
2021/07/08 08:20:14;;;;;;;4.60;4.10;;;;;;;;;;3586617;39;20463;-79
2021/07/08 08:22:41;;;;;;;6.00;5.40;;;;;;;;;;3578707;39;20424;-79
2021/07/08 08:25:09;;;;;;;5.53;5.00;;;;;;;;;;3584794;39;21056;-79
2021/07/08 08:27:36;;;;;;;5.90;5.50;;;;;;;;;;3582094;39;20443;-79
2021/07/08 08:30:03;;;;;;;5.37;4.87;;;;;;;;;;3583912;39;20420;-79
2021/07/08 08:32:29;;;;;;;7.83;5.60;;;;;;;;;;3575242;39;20427;-79
2021/07/08 08:35:04;;;;;;;8.60;5.83;;;;;;;;;;3625818;39;20519;-78
2021/07/08 08:37:30;;;;;;;6.30;5.77;;;;;;;;;;3612901;39;20433;-78
2021/07/08 08:39:56;;;;;;;8.63;5.90;;;;;;;;;;3613384;39;20428;-78
2021/07/08 08:42:25;;;;;;;6.27;5.67;;;;;;;;;;3596132;39;22619;-78
2021/07/08 08:44:51;;;;;;;6.13;5.40;;;;;;;;;;3604765;39;20488;-78
2021/07/08 08:47:17;;;;;;;5.47;4.93;;;;;;;;;;3615139;39;21455;-79
2021/07/08 08:49:43;;;;;;;5.30;4.80;;;;;;;;;;3613833;39;20930;-79
2021/07/08 08:52:10;;;;;;;6.07;5.50;;;;;;;;;;3613869;39;21183;-78
2021/07/08 08:54:37;;;;;;;6.03;5.30;;;;;;;;;;3618038;39;21159;-79
2021/07/08 08:57:04;;;;;;;6.03;5.53;;;;;;;;;;3606430;39;20419;-78
2021/07/08 08:59:30;;;;;;;5.67;5.17;;;;;;;;;;3618001;39;21166;-78
2021/07/08 09:02:09;;;;;;;5.93;5.43;;;;;;;;;;3621505;39;20513;-79
2021/07/08 09:04:36;;;;;;;6.40;5.80;;;;;;;;;;3607166;39;20468;-79
2021/07/08 09:07:21;;;;;;;10.50;5.23;;;;;;;;;;3619731;39;21188;-79
2021/07/08 09:09:47;;;;;;;6.57;5.53;;;;;;;;;;3618019;39;20468;-78
2021/07/08 09:12:14;;;;;;;5.47;5.07;;;;;;;;;;3606900;39;20476;-78
2021/07/08 09:14:40;;;;;;;5.43;5.03;;;;;;;;;;3610551;39;20433;-78
2021/07/08 09:17:19;;;;;;;5.20;4.80;;;;;;;;;;3619495;39;20869;-78
2021/07/08 09:19:50;;;;;;;4.70;4.40;;;;;;;;;;3612189;39;20437;-78
2021/07/08 09:22:29;;;;;;;4.30;3.90;;;;;;;;;;3614035;39;20393;-78
2021/07/08 09:24:55;;;;;;;5.00;4.53;;;;;;;;;;3614089;39;20497;-78
2021/07/08 09:27:25;;;;;;;4.60;4.20;;;;;;;;;;3612424;39;20406;-78
2021/07/08 09:29:51;;;;;;;6.97;4.80;;;;;;;;;;3614350;39;20406;-79
2021/07/08 09:32:22;;;;;;;5.43;5.03;;;;;;;;;;3614673;39;22383;-79
2021/07/08 09:34:59;;;;;;;5.50;5.10;;;;;;;;;;3602661;39;21264;-78
2021/07/08 09:37:27;;;;;;;5.73;5.23;;;;;;;;;;3617179;39;20447;-78
2021/07/08 09:39:57;;;;;;;5.70;5.30;;;;;;;;;;3615596;39;20560;-79
2021/07/08 09:42:45;;;;;;;5.10;4.70;;;;;;;;;;3615274;39;21201;-78
2021/07/08 09:45:15;;;;;;;4.90;4.60;;;;;;;;;;3618519;39;20405;-79
2021/07/08 09:47:42;;;;;;;7.43;5.50;;;;;;;;;;3608296;39;20483;-79
2021/07/08 09:50:28;;;;;;;5.07;4.57;;;;;;;;;;3604032;39;20564;-79
2021/07/08 09:53:02;;;;;;;6.40;4.57;;;;;;;;;;3587689;39;21394;-79
2021/07/08 09:55:33;;;;;;;4.83;4.40;;;;;;;;;;3574604;39;20716;-79
2021/07/08 09:58:04;;;;;;;5.00;4.40;;;;;;;;;;3579564;39;20418;-79
2021/07/08 10:00:32;;;;;;;5.10;4.70;;;;;;;;;;3586251;39;20953;-79
2021/07/08 10:02:58;;;;;;;4.80;4.30;;;;;;;;;;3586992;39;21345;-79
2021/07/08 10:05:25;;;;;;;9.40;5.30;;;;;;;;;;3597105;39;20429;-79
2021/07/08 10:07:51;;;;;;;5.17;4.77;;;;;;;;;;3585380;39;20407;-79
2021/07/08 10:10:18;;;;;;;4.27;3.97;;;;;;;;;;3583492;39;20436;-79
2021/07/08 10:12:46;;;;;;;5.03;4.53;;;;;;;;;;3577406;39;20761;-79
2021/07/08 10:15:13;;;;;;;6.03;5.30;;;;;;;;;;3587039;39;20492;-79
2021/07/08 10:17:39;;;;;;;5.00;4.60;;;;;;;;;;3568793;39;20435;-79
2021/07/08 10:20:07;;;;;;;4.77;4.37;;;;;;;;;;3584014;39;20455;-79
2021/07/08 10:22:36;;;;;;;4.73;4.40;;;;;;;;;;3584140;39;20396;-78
2021/07/08 10:25:03;;;;;;;4.97;4.60;;;;;;;;;;3585066;39;20402;-78
2021/07/08 10:27:30;;;;;;;4.53;4.23;;;;;;;;;;3581329;39;20466;-79
2021/07/08 10:29:58;;;;;;;5.90;5.27;;;;;;;;;;3591184;39;20553;-79
2021/07/08 10:32:26;;;;;;;4.70;4.20;;;;;;;;;;3602168;39;20465;-79
2021/07/08 10:34:52;;;;;;;5.70;4.80;;;;;;;;;;3591411;39;20477;-79
2021/07/08 10:37:28;;;;;;;5.70;4.47;;;;;;;;;;3598646;39;20414;-78
2021/07/08 10:39:55;;;;;;;5.00;4.17;;;;;;;;;;3604655;39;20473;-79
2021/07/08 10:42:51;;;;;;;4.70;4.30;;;;;;;;;;3612366;39;20424;-79
2021/07/08 10:45:25;;;;;;;4.20;3.90;;;;;;;;;;3592085;39;20970;-79
2021/07/08 10:47:52;;;;;;;4.43;4.07;;;;;;;;;;3599845;39;20418;-79
2021/07/08 10:50:30;;;;;;;5.23;4.77;;;;;;;;;;3596806;39;20421;-79
2021/07/08 10:52:56;;;;;;;4.27;3.80;;;;;;;;;;3612816;39;20433;-79
2021/07/08 10:55:33;;;;;;;4.77;4.37;;;;;;;;;;3612778;39;21134;-79
2021/07/08 10:57:59;;;;;;;5.20;4.70;;;;;;;;;;3592826;39;21114;-78
2021/07/08 11:00:46;;;;;;;5.20;4.20;;;;;;;;;;3599200;39;20522;-78
2021/07/08 11:03:30;;;;;;;4.67;4.10;;;;;;;;;;3613069;39;22400;-79
2021/07/08 11:05:58;;;;;;;4.40;4.00;;;;;;;;;;3608005;39;20418;-78
2021/07/08 11:08:42;;;;;;;6.83;4.07;;;;;;;;;;3616464;39;20457;-78
2021/07/08 11:11:09;;;;;;;4.47;4.13;;;;;;;;;;3615197;39;20457;-79
2021/07/08 11:13:35;;;;;;;5.07;3.97;;;;;;;;;;3608653;39;20440;-79
2021/07/08 11:16:01;;;;;;;8.00;4.60;;;;;;;;;;3608165;39;20408;-79
2021/07/08 11:18:29;;;;;;;4.60;4.30;;;;;;;;;;3604316;39;20469;-78
2021/07/08 11:20:55;;;;;;;6.10;4.97;;;;;;;;;;3605955;39;20607;-78
2021/07/08 11:23:27;;;;;;;5.60;5.20;;;;;;;;;;3603968;39;21205;-78
2021/07/08 11:25:53;;;;;;;5.07;4.67;;;;;;;;;;3606465;39;20406;-78
2021/07/08 11:28:30;;;;;;;5.20;4.90;;;;;;;;;;3608348;39;20421;-79
2021/07/08 11:31:00;;;;;;;5.50;5.10;;;;;;;;;;3606330;39;22460;-79
2021/07/08 11:33:26;;;;;;;5.63;5.23;;;;;;;;;;3609910;39;20418;-78
2021/07/08 11:35:58;;;;;;;5.70;5.30;;;;;;;;;;3615850;39;21135;-78
2021/07/08 11:38:25;;;;;;;5.27;4.97;;;;;;;;;;3603296;39;20553;-78
2021/07/08 11:40:52;;;;;;;5.67;5.13;;;;;;;;;;3612240;39;20420;-78
2021/07/08 11:43:21;;;;;;;6.10;5.00;;;;;;;;;;3598249;39;20425;-78
2021/07/08 11:45:48;;;;;;;4.60;4.30;;;;;;;;;;3605116;39;20450;-77
2021/07/08 11:48:23;;;;;;;4.60;4.30;;;;;;;;;;3610400;39;20852;-79
2021/07/08 11:50:49;;;;;;;4.80;4.53;;;;;;;;;;3617971;39;20455;-78
2021/07/08 11:53:17;;;;;;;19.73;10.67;;;;;;;;;;3617351;39;20385;-78
2021/07/08 11:55:47;;;;;;;5.17;4.77;;;;;;;;;;3619479;39;20427;-78
2021/07/08 11:58:15;;;;;;;5.37;4.87;;;;;;;;;;3603825;39;21503;-78
2021/07/08 12:00:41;;;;;;;4.47;4.13;;;;;;;;;;3596378;39;20913;-79
2021/07/08 12:03:21;;;;;;;5.03;4.63;;;;;;;;;;3609321;39;20414;-78
2021/07/08 12:05:47;;;;;;;6.57;5.30;;;;;;;;;;3604978;39;20426;-78
2021/07/08 12:08:21;;;;;;;5.03;4.60;;;;;;;;;;3603634;39;20405;-78
2021/07/08 12:10:47;;;;;;;5.27;4.87;;;;;;;;;;3600437;39;20748;-78
2021/07/08 12:13:17;;;;;;;5.13;4.90;;;;;;;;;;3599357;39;20762;-79
2021/07/08 12:15:43;;;;;;;5.13;4.83;;;;;;;;;;3590507;39;20413;-78
2021/07/08 12:18:09;;;;;;;5.33;4.77;;;;;;;;;;3599256;39;20394;-78
2021/07/08 12:20:46;;;;;;;7.27;5.07;;;;;;;;;;3599494;39;20406;-78
2021/07/08 12:23:12;;;;;;;5.50;5.00;;;;;;;;;;3610235;39;20402;-78
2021/07/08 12:25:38;;;;;;;6.60;5.13;;;;;;;;;;3588155;39;20830;-78
2021/07/08 12:31:08;;;;;;;5.67;5.17;;;;;;;;;;3602448;39;20437;-79
2021/07/08 12:33:34;;;;;;;6.10;5.47;;;;;;;;;;3598266;39;20429;-79
2021/07/08 12:36:01;;;;;;;5.53;4.80;;;;;;;;;;3608812;39;20510;-79
2021/07/08 12:38:27;;;;;;;5.70;5.30;;;;;;;;;;3582083;39;20434;-79
2021/07/08 12:41:01;;;;;;;5.03;4.60;;;;;;;;;;3595685;39;20448;-79
2021/07/08 12:43:27;;;;;;;5.50;5.10;;;;;;;;;;3598349;39;20409;-79
2021/07/08 12:45:53;;;;;;;5.87;5.30;;;;;;;;;;3599401;39;20705;-79
2021/07/08 12:48:19;;;;;;;8.50;5.70;;;;;;;;;;3592190;39;20413;-79
2021/07/08 12:50:46;;;;;;;5.13;4.53;;;;;;;;;;3610449;39;20417;-79
2021/07/08 12:53:13;;;;;;;6.00;5.40;;;;;;;;;;3592218;39;20441;-79
2021/07/08 12:55:48;;;;;;;7.30;5.00;;;;;;;;;;3608178;39;20758;-79
2021/07/08 12:58:16;;;;;;;6.20;4.70;;;;;;;;;;3606169;39;20821;-79
2021/07/08 13:00:42;;;;;;;6.20;5.70;;;;;;;;;;3597913;39;20428;-79
2021/07/08 13:03:15;;;;;;;6.60;6.00;;;;;;;;;;3605031;39;21117;-79
2021/07/08 13:05:43;;;;;;;8.23;6.47;;;;;;;;;;3593629;39;20449;-79
2021/07/08 13:08:11;;;;;;;8.03;5.83;;;;;;;;;;3607942;39;20406;-79
2021/07/08 13:10:44;;;;;;;6.37;5.77;;;;;;;;;;3601401;39;20476;-79
2021/07/08 13:13:12;;;;;;;6.40;6.00;;;;;;;;;;3599390;39;20498;-79
2021/07/08 13:15:43;;;;;;;9.63;6.87;;;;;;;;;;3605226;39;20809;-79
2021/07/08 13:18:11;;;;;;;7.50;5.80;;;;;;;;;;3608028;39;20515;-79
2021/07/08 13:20:39;;;;;;;6.47;5.83;;;;;;;;;;3589336;39;20428;-79
2021/07/08 13:23:16;;;;;;;10.00;6.80;;;;;;;;;;3599145;39;21171;-79
2021/07/08 13:25:43;;;;;;;7.03;6.17;;;;;;;;;;3607045;39;20460;-79
2021/07/08 13:28:19;;;;;;;10.10;7.13;;;;;;;;;;3604587;39;20579;-79
2021/07/08 13:30:56;;;;;;;7.40;6.80;;;;;;;;;;3599786;39;20543;-80
2021/07/08 13:33:32;;;;;;;7.47;6.50;;;;;;;;;;3607490;39;20385;-78
2021/07/08 13:36:04;;;;;;;6.90;6.17;;;;;;;;;;3582835;39;20422;-79
2021/07/08 13:38:33;;;;;;;6.47;5.83;;;;;;;;;;3589072;39;20434;-79
2021/07/08 13:41:00;;;;;;;7.93;5.70;;;;;;;;;;3578306;39;20746;-79
2021/07/08 13:43:33;;;;;;;7.57;6.80;;;;;;;;;;3597988;39;20414;-79
2021/07/08 13:46:11;;;;;;;6.00;5.50;;;;;;;;;;3582251;39;20412;-80
2021/07/08 13:48:38;;;;;;;7.47;5.80;;;;;;;;;;3588172;39;20414;-80
2021/07/08 13:51:08;;;;;;;5.73;5.27;;;;;;;;;;3595959;39;20437;-79
2021/07/08 13:53:34;;;;;;;6.77;6.07;;;;;;;;;;3587140;39;20552;-78
2021/07/08 13:56:00;;;;;;;7.43;5.60;;;;;;;;;;3580931;39;20453;-78
2021/07/08 13:58:27;;;;;;;7.33;5.93;;;;;;;;;;3583449;39;20407;-79
2021/07/08 14:00:53;;;;;;;7.20;6.60;;;;;;;;;;3583116;39;20410;-79
2021/07/08 14:03:20;;;;;;;6.20;5.67;;;;;;;;;;3583439;39;20399;-80
2021/07/08 14:05:46;;;;;;;14.37;6.00;;;;;;;;;;3584215;39;20430;-78
2021/07/08 14:08:13;;;;;;;10.50;7.20;;;;;;;;;;3583898;39;21161;-79
2021/07/08 14:10:40;;;;;;;6.27;5.67;;;;;;;;;;3594372;39;20403;-79
2021/07/08 14:13:07;;;;;;;6.70;6.00;;;;;;;;;;3574316;39;20403;-79
2021/07/08 14:15:33;;;;;;;10.20;5.77;;;;;;;;;;3589773;39;20411;-80
2021/07/08 14:17:59;;;;;;;6.23;5.70;;;;;;;;;;3580818;39;20410;-79
2021/07/08 14:20:25;;;;;;;7.97;5.80;;;;;;;;;;3591788;39;20482;-78
2021/07/08 14:22:51;;;;;;;6.10;5.50;;;;;;;;;;3598412;39;20814;-79
2021/07/08 14:25:17;;;;;;;9.33;6.43;;;;;;;;;;3592120;39;20481;-79
2021/07/08 14:27:44;;;;;;;7.30;6.13;;;;;;;;;;3604173;39;20520;-78
2021/07/08 14:30:10;;;;;;;7.10;6.40;;;;;;;;;;3592072;39;20797;-78
2021/07/08 14:32:38;;;;;;;8.87;5.90;;;;;;;;;;3591698;39;20567;-79
2021/07/08 14:35:05;;;;;;;6.47;5.83;;;;;;;;;;3611480;39;20508;-79
2021/07/08 14:37:32;;;;;;;10.23;5.77;;;;;;;;;;3621444;39;20427;-79
2021/07/08 14:39:58;;;;;;;6.20;5.57;;;;;;;;;;3621014;39;20817;-79
2021/07/08 14:42:40;;;;;;;6.80;5.63;;;;;;;;;;3615224;39;20911;-80
2021/07/08 14:45:11;;;;;;;13.57;6.10;;;;;;;;;;3614609;39;20476;-79
2021/07/08 14:47:37;;;;;;;6.37;5.90;;;;;;;;;;3617693;39;20394;-79
2021/07/08 14:50:04;;;;;;;9.53;6.07;;;;;;;;;;3619567;39;20408;-79
2021/07/08 14:52:30;;;;;;;7.17;5.37;;;;;;;;;;3620066;39;20415;-79
2021/07/08 14:54:56;;;;;;;5.73;4.90;;;;;;;;;;3599733;39;22693;-79
2021/07/08 14:57:22;;;;;;;5.00;4.60;;;;;;;;;;3614903;39;20774;-79
2021/07/08 14:59:48;;;;;;;5.70;4.93;;;;;;;;;;3616203;39;20400;-79
2021/07/08 15:02:14;;;;;;;3.60;3.40;;;;;;;;;;3605213;39;20409;-78